sensor_id;sensor_type;location;lat;lon;timestamp;temperature;humidity
15231;DHT22;32569;51.762;8.564;2022-12-31T00:01:05;11.80;99.90
15231;DHT22;32569;51.762;8.564;2022-12-31T00:03:35;11.80;99.90
15231;DHT22;32569;51.762;8.564;2022-12-31T00:06:13;11.90;99.90
15231;DHT22;32569;51.762;8.564;2022-12-31T00:08:43;11.90;99.90
15231;DHT22;32569;51.762;8.564;2022-12-31T00:11:11;12.10;99.90
15231;DHT22;32569;51.762;8.564;2022-12-31T00:13:38;12.10;99.90
15231;DHT22;32569;51.762;8.564;2022-12-31T00:16:07;12.10;99.90
15231;DHT22;32569;51.762;8.564;2022-12-31T00:18:34;12.10;99.90
15231;DHT22;32569;51.762;8.564;2022-12-31T00:21:04;12.10;99.90
15231;DHT22;32569;51.762;8.564;2022-12-31T00:23:31;12.20;99.90
15231;DHT22;32569;51.762;8.564;2022-12-31T00:26:02;12.20;99.90
15231;DHT22;32569;51.762;8.564;2022-12-31T00:28:33;12.30;99.90
15231;DHT22;32569;51.762;8.564;2022-12-31T00:31:08;12.30;99.90
15231;DHT22;32569;51.762;8.564;2022-12-31T00:33:35;12.40;99.90
15231;DHT22;32569;51.762;8.564;2022-12-31T00:36:04;12.40;99.90
15231;DHT22;32569;51.762;8.564;2022-12-31T00:38:38;12.40;99.90
15231;DHT22;32569;51.762;8.564;2022-12-31T00:41:05;12.40;99.90
15231;DHT22;32569;51.762;8.564;2022-12-31T00:43:34;12.40;99.90
15231;DHT22;32569;51.762;8.564;2022-12-31T00:46:02;12.40;99.90
15231;DHT22;32569;51.762;8.564;2022-12-31T00:48:35;12.40;99.90
15231;DHT22;32569;51.762;8.564;2022-12-31T00:51:03;12.30;99.90
15231;DHT22;32569;51.762;8.564;2022-12-31T00:53:30;12.20;99.90
15231;DHT22;32569;51.762;8.564;2022-12-31T00:56:00;12.20;99.90
15231;DHT22;32569;51.762;8.564;2022-12-31T00:58:27;12.10;99.90
15231;DHT22;32569;51.762;8.564;2022-12-31T01:00:57;12.10;99.90
15231;DHT22;32569;51.762;8.564;2022-12-31T01:03:25;12.10;99.90
15231;DHT22;32569;51.762;8.564;2022-12-31T01:05:51;12.00;99.90
15231;DHT22;32569;51.762;8.564;2022-12-31T01:08:21;12.00;99.90
15231;DHT22;32569;51.762;8.564;2022-12-31T01:10:48;12.00;99.90
15231;DHT22;32569;51.762;8.564;2022-12-31T01:13:32;12.00;99.90
15231;DHT22;32569;51.762;8.564;2022-12-31T01:16:07;12.00;99.90
15231;DHT22;32569;51.762;8.564;2022-12-31T01:18:36;12.10;99.90
15231;DHT22;32569;51.762;8.564;2022-12-31T01:21:05;12.10;99.90
15231;DHT22;32569;51.762;8.564;2022-12-31T01:23:32;12.20;99.90
15231;DHT22;32569;51.762;8.564;2022-12-31T01:26:00;12.30;99.90
15231;DHT22;32569;51.762;8.564;2022-12-31T01:28:30;12.30;99.90
15231;DHT22;32569;51.762;8.564;2022-12-31T01:30:57;12.30;99.90
15231;DHT22;32569;51.762;8.564;2022-12-31T01:33:25;12.40;99.90
15231;DHT22;32569;51.762;8.564;2022-12-31T01:35:51;12.40;99.90
15231;DHT22;32569;51.762;8.564;2022-12-31T01:38:18;12.50;99.90
15231;DHT22;32569;51.762;8.564;2022-12-31T01:40:44;12.50;99.90
15231;DHT22;32569;51.762;8.564;2022-12-31T01:43:16;12.50;99.90
15231;DHT22;32569;51.762;8.564;2022-12-31T01:45:44;12.50;99.90
15231;DHT22;32569;51.762;8.564;2022-12-31T01:48:12;12.60;99.90
15231;DHT22;32569;51.762;8.564;2022-12-31T01:50:42;12.50;99.90
15231;DHT22;32569;51.762;8.564;2022-12-31T01:53:10;12.40;99.90
15231;DHT22;32569;51.762;8.564;2022-12-31T01:55:42;12.30;99.90
15231;DHT22;32569;51.762;8.564;2022-12-31T01:58:17;12.20;99.90
15231;DHT22;32569;51.762;8.564;2022-12-31T02:00:44;12.20;99.90
15231;DHT22;32569;51.762;8.564;2022-12-31T02:03:14;12.10;99.90
15231;DHT22;32569;51.762;8.564;2022-12-31T02:05:46;12.00;99.90
15231;DHT22;32569;51.762;8.564;2022-12-31T02:08:15;11.90;99.90
15231;DHT22;32569;51.762;8.564;2022-12-31T02:10:42;11.90;99.90
15231;DHT22;32569;51.762;8.564;2022-12-31T02:13:09;11.90;99.90
15231;DHT22;32569;51.762;8.564;2022-12-31T02:15:50;11.90;99.90
15231;DHT22;32569;51.762;8.564;2022-12-31T02:18:28;11.90;99.90
15231;DHT22;32569;51.762;8.564;2022-12-31T02:21:28;11.90;99.90
15231;DHT22;32569;51.762;8.564;2022-12-31T02:24:32;11.90;99.90
15231;DHT22;32569;51.762;8.564;2022-12-31T02:27:06;11.90;99.90
15231;DHT22;32569;51.762;8.564;2022-12-31T02:29:50;11.90;99.90
15231;DHT22;32569;51.762;8.564;2022-12-31T02:32:21;11.90;99.90
15231;DHT22;32569;51.762;8.564;2022-12-31T02:34:52;11.90;99.90
15231;DHT22;32569;51.762;8.564;2022-12-31T02:37:23;11.90;99.90
15231;DHT22;32569;51.762;8.564;2022-12-31T02:39:52;11.90;99.90
15231;DHT22;32569;51.762;8.564;2022-12-31T02:42:18;11.90;99.90
15231;DHT22;32569;51.762;8.564;2022-12-31T02:44:46;11.90;99.90
15231;DHT22;32569;51.762;8.564;2022-12-31T02:47:21;11.90;99.90
15231;DHT22;32569;51.762;8.564;2022-12-31T02:50:04;11.90;99.90
15231;DHT22;32569;51.762;8.564;2022-12-31T02:52:42;12.00;99.90
15231;DHT22;32569;51.762;8.564;2022-12-31T02:55:17;12.00;99.90
15231;DHT22;32569;51.762;8.564;2022-12-31T02:57:49;12.00;99.90
15231;DHT22;32569;51.762;8.564;2022-12-31T03:00:19;12.10;99.90
15231;DHT22;32569;51.762;8.564;2022-12-31T03:03:04;12.20;99.90
15231;DHT22;32569;51.762;8.564;2022-12-31T03:05:35;12.30;99.90
15231;DHT22;32569;51.762;8.564;2022-12-31T03:08:03;12.50;99.90
15231;DHT22;32569;51.762;8.564;2022-12-31T03:10:29;12.50;99.90
15231;DHT22;32569;51.762;8.564;2022-12-31T03:12:59;12.70;99.90
15231;DHT22;32569;51.762;8.564;2022-12-31T03:15:28;12.80;99.90
15231;DHT22;32569;51.762;8.564;2022-12-31T03:18:00;12.80;99.90
15231;DHT22;32569;51.762;8.564;2022-12-31T03:20:30;13.00;99.90
15231;DHT22;32569;51.762;8.564;2022-12-31T03:23:18;13.10;99.90
15231;DHT22;32569;51.762;8.564;2022-12-31T03:25:46;13.20;99.90
15231;DHT22;32569;51.762;8.564;2022-12-31T03:28:13;13.30;99.90
15231;DHT22;32569;51.762;8.564;2022-12-31T03:30:44;13.50;99.90
15231;DHT22;32569;51.762;8.564;2022-12-31T03:33:12;13.60;99.90
15231;DHT22;32569;51.762;8.564;2022-12-31T03:35:43;13.70;99.90
15231;DHT22;32569;51.762;8.564;2022-12-31T03:38:10;13.80;99.90
15231;DHT22;32569;51.762;8.564;2022-12-31T03:40:39;13.90;99.90
15231;DHT22;32569;51.762;8.564;2022-12-31T03:43:06;14.00;99.90
15231;DHT22;32569;51.762;8.564;2022-12-31T03:45:33;14.10;99.90
15231;DHT22;32569;51.762;8.564;2022-12-31T03:48:01;14.10;99.90
15231;DHT22;32569;51.762;8.564;2022-12-31T03:50:28;14.20;99.90
15231;DHT22;32569;51.762;8.564;2022-12-31T03:52:54;14.20;99.90
15231;DHT22;32569;51.762;8.564;2022-12-31T03:55:21;14.20;99.90
15231;DHT22;32569;51.762;8.564;2022-12-31T03:57:48;14.30;99.90
15231;DHT22;32569;51.762;8.564;2022-12-31T04:00:16;14.40;99.90
15231;DHT22;32569;51.762;8.564;2022-12-31T04:02:43;14.40;99.90
15231;DHT22;32569;51.762;8.564;2022-12-31T04:05:12;14.50;99.90
15231;DHT22;32569;51.762;8.564;2022-12-31T04:07:42;14.60;99.90
15231;DHT22;32569;51.762;8.564;2022-12-31T04:10:10;14.60;99.90
15231;DHT22;32569;51.762;8.564;2022-12-31T04:12:37;14.60;99.90
15231;DHT22;32569;51.762;8.564;2022-12-31T04:15:05;14.60;99.90
15231;DHT22;32569;51.762;8.564;2022-12-31T04:17:32;14.50;99.90
15231;DHT22;32569;51.762;8.564;2022-12-31T04:19:59;14.60;99.90
15231;DHT22;32569;51.762;8.564;2022-12-31T04:22:27;14.50;99.90
15231;DHT22;32569;51.762;8.564;2022-12-31T04:24:53;14.50;99.90
15231;DHT22;32569;51.762;8.564;2022-12-31T04:27:20;14.50;99.90
15231;DHT22;32569;51.762;8.564;2022-12-31T04:29:47;14.50;99.90
15231;DHT22;32569;51.762;8.564;2022-12-31T04:32:13;14.40;99.90
15231;DHT22;32569;51.762;8.564;2022-12-31T04:34:40;14.40;99.90
15231;DHT22;32569;51.762;8.564;2022-12-31T04:37:06;14.40;99.90
15231;DHT22;32569;51.762;8.564;2022-12-31T04:39:34;14.40;99.90
15231;DHT22;32569;51.762;8.564;2022-12-31T04:42:01;14.40;99.90
15231;DHT22;32569;51.762;8.564;2022-12-31T04:44:28;14.50;99.90
15231;DHT22;32569;51.762;8.564;2022-12-31T04:46:56;14.60;99.90
15231;DHT22;32569;51.762;8.564;2022-12-31T04:49:22;14.60;99.90
15231;DHT22;32569;51.762;8.564;2022-12-31T04:51:49;14.70;99.90
15231;DHT22;32569;51.762;8.564;2022-12-31T04:54:15;14.60;99.90
15231;DHT22;32569;51.762;8.564;2022-12-31T04:56:43;14.60;99.90
15231;DHT22;32569;51.762;8.564;2022-12-31T04:59:10;14.60;99.90
15231;DHT22;32569;51.762;8.564;2022-12-31T05:01:43;14.70;99.90
15231;DHT22;32569;51.762;8.564;2022-12-31T05:04:09;14.60;99.90
15231;DHT22;32569;51.762;8.564;2022-12-31T05:06:36;14.60;99.90
15231;DHT22;32569;51.762;8.564;2022-12-31T05:09:03;14.60;99.90
15231;DHT22;32569;51.762;8.564;2022-12-31T05:11:29;14.60;99.90
15231;DHT22;32569;51.762;8.564;2022-12-31T05:13:57;14.70;99.90
15231;DHT22;32569;51.762;8.564;2022-12-31T05:16:24;14.70;99.90
15231;DHT22;32569;51.762;8.564;2022-12-31T05:18:53;14.70;99.90
15231;DHT22;32569;51.762;8.564;2022-12-31T05:21:20;14.60;99.90
15231;DHT22;32569;51.762;8.564;2022-12-31T05:23:47;14.60;99.90
15231;DHT22;32569;51.762;8.564;2022-12-31T05:26:14;14.60;99.90
15231;DHT22;32569;51.762;8.564;2022-12-31T05:28:41;14.50;99.90
15231;DHT22;32569;51.762;8.564;2022-12-31T05:31:09;14.40;99.90
15231;DHT22;32569;51.762;8.564;2022-12-31T05:33:36;14.30;99.90
15231;DHT22;32569;51.762;8.564;2022-12-31T05:36:03;14.20;99.90
15231;DHT22;32569;51.762;8.564;2022-12-31T05:38:30;14.10;99.90
15231;DHT22;32569;51.762;8.564;2022-12-31T05:41:04;14.00;99.90
15231;DHT22;32569;51.762;8.564;2022-12-31T05:43:31;14.10;99.90
15231;DHT22;32569;51.762;8.564;2022-12-31T05:45:59;14.10;99.90
15231;DHT22;32569;51.762;8.564;2022-12-31T05:48:27;14.20;99.90
15231;DHT22;32569;51.762;8.564;2022-12-31T05:50:54;14.30;99.90
15231;DHT22;32569;51.762;8.564;2022-12-31T05:53:20;14.30;99.90
15231;DHT22;32569;51.762;8.564;2022-12-31T05:55:47;14.30;99.90
15231;DHT22;32569;51.762;8.564;2022-12-31T05:58:14;14.30;99.90
15231;DHT22;32569;51.762;8.564;2022-12-31T06:00:41;14.30;99.90
15231;DHT22;32569;51.762;8.564;2022-12-31T06:03:08;14.40;99.90
15231;DHT22;32569;51.762;8.564;2022-12-31T06:05:41;14.60;99.90
15231;DHT22;32569;51.762;8.564;2022-12-31T06:08:08;14.70;99.90
15231;DHT22;32569;51.762;8.564;2022-12-31T06:10:34;14.80;99.90
15231;DHT22;32569;51.762;8.564;2022-12-31T06:13:01;14.70;99.90
15231;DHT22;32569;51.762;8.564;2022-12-31T06:15:28;14.80;99.90
15231;DHT22;32569;51.762;8.564;2022-12-31T06:17:54;14.80;99.90
15231;DHT22;32569;51.762;8.564;2022-12-31T06:20:21;14.90;99.90
15231;DHT22;32569;51.762;8.564;2022-12-31T06:22:49;15.00;99.90
15231;DHT22;32569;51.762;8.564;2022-12-31T06:25:15;15.00;99.90
15231;DHT22;32569;51.762;8.564;2022-12-31T06:27:42;15.10;99.90
15231;DHT22;32569;51.762;8.564;2022-12-31T06:30:10;15.10;99.90
15231;DHT22;32569;51.762;8.564;2022-12-31T06:32:37;15.00;99.90
15231;DHT22;32569;51.762;8.564;2022-12-31T06:35:04;15.10;99.90
15231;DHT22;32569;51.762;8.564;2022-12-31T06:37:31;15.10;99.90
15231;DHT22;32569;51.762;8.564;2022-12-31T06:39:59;15.10;99.90
15231;DHT22;32569;51.762;8.564;2022-12-31T06:42:29;15.10;99.90
15231;DHT22;32569;51.762;8.564;2022-12-31T06:44:56;15.00;99.90
15231;DHT22;32569;51.762;8.564;2022-12-31T06:47:23;15.10;99.90
15231;DHT22;32569;51.762;8.564;2022-12-31T06:49:49;15.10;99.90
15231;DHT22;32569;51.762;8.564;2022-12-31T06:52:16;15.10;99.90
15231;DHT22;32569;51.762;8.564;2022-12-31T06:54:43;15.10;99.90
15231;DHT22;32569;51.762;8.564;2022-12-31T06:57:20;15.10;99.90
15231;DHT22;32569;51.762;8.564;2022-12-31T06:59:51;15.20;99.90
15231;DHT22;32569;51.762;8.564;2022-12-31T07:02:29;15.20;99.90
15231;DHT22;32569;51.762;8.564;2022-12-31T07:05:09;15.30;99.90
15231;DHT22;32569;51.762;8.564;2022-12-31T07:07:48;15.20;99.90
15231;DHT22;32569;51.762;8.564;2022-12-31T07:10:24;15.40;99.90
15231;DHT22;32569;51.762;8.564;2022-12-31T07:13:06;15.40;99.90
15231;DHT22;32569;51.762;8.564;2022-12-31T07:15:54;15.50;99.90
15231;DHT22;32569;51.762;8.564;2022-12-31T07:18:28;15.60;99.90
15231;DHT22;32569;51.762;8.564;2022-12-31T07:20:59;15.60;99.90
15231;DHT22;32569;51.762;8.564;2022-12-31T07:23:26;15.60;99.90
15231;DHT22;32569;51.762;8.564;2022-12-31T07:25:59;15.70;99.90
15231;DHT22;32569;51.762;8.564;2022-12-31T07:28:41;15.70;99.90
15231;DHT22;32569;51.762;8.564;2022-12-31T07:31:18;15.70;99.90
15231;DHT22;32569;51.762;8.564;2022-12-31T07:33:54;15.80;99.90
15231;DHT22;32569;51.762;8.564;2022-12-31T07:36:38;15.80;99.90
15231;DHT22;32569;51.762;8.564;2022-12-31T07:39:10;15.80;99.90
15231;DHT22;32569;51.762;8.564;2022-12-31T07:41:45;15.80;99.90
15231;DHT22;32569;51.762;8.564;2022-12-31T07:44:28;15.90;99.90
15231;DHT22;32569;51.762;8.564;2022-12-31T07:47:00;15.90;99.90
15231;DHT22;32569;51.762;8.564;2022-12-31T07:49:29;15.80;99.90
15231;DHT22;32569;51.762;8.564;2022-12-31T07:51:56;15.80;99.90
15231;DHT22;32569;51.762;8.564;2022-12-31T07:54:23;15.70;99.90
15231;DHT22;32569;51.762;8.564;2022-12-31T07:56:50;15.60;99.90
15231;DHT22;32569;51.762;8.564;2022-12-31T07:59:31;15.70;99.90
15231;DHT22;32569;51.762;8.564;2022-12-31T08:02:09;15.60;99.90
15231;DHT22;32569;51.762;8.564;2022-12-31T08:04:45;15.60;99.90
15231;DHT22;32569;51.762;8.564;2022-12-31T08:07:19;15.60;99.90
15231;DHT22;32569;51.762;8.564;2022-12-31T08:09:55;15.60;99.90
15231;DHT22;32569;51.762;8.564;2022-12-31T08:12:26;15.70;99.90
15231;DHT22;32569;51.762;8.564;2022-12-31T08:14:58;15.70;99.90
15231;DHT22;32569;51.762;8.564;2022-12-31T08:17:25;15.80;99.90
15231;DHT22;32569;51.762;8.564;2022-12-31T08:19:52;15.70;99.90
15231;DHT22;32569;51.762;8.564;2022-12-31T08:22:35;15.70;99.90
15231;DHT22;32569;51.762;8.564;2022-12-31T08:25:13;15.80;99.90
15231;DHT22;32569;51.762;8.564;2022-12-31T08:27:46;15.90;99.90
15231;DHT22;32569;51.762;8.564;2022-12-31T08:30:19;15.80;99.90
15231;DHT22;32569;51.762;8.564;2022-12-31T08:32:50;15.80;99.90
15231;DHT22;32569;51.762;8.564;2022-12-31T08:35:29;15.80;99.90
15231;DHT22;32569;51.762;8.564;2022-12-31T08:38:08;15.90;99.90
15231;DHT22;32569;51.762;8.564;2022-12-31T08:40:47;15.90;99.90
15231;DHT22;32569;51.762;8.564;2022-12-31T08:43:28;15.90;99.90
15231;DHT22;32569;51.762;8.564;2022-12-31T08:46:02;16.00;99.90
15231;DHT22;32569;51.762;8.564;2022-12-31T08:48:32;16.10;99.90
15231;DHT22;32569;51.762;8.564;2022-12-31T08:51:01;16.10;99.90
15231;DHT22;32569;51.762;8.564;2022-12-31T08:53:29;16.20;99.90
15231;DHT22;32569;51.762;8.564;2022-12-31T08:56:00;16.10;99.90
15231;DHT22;32569;51.762;8.564;2022-12-31T08:58:39;16.10;99.90
15231;DHT22;32569;51.762;8.564;2022-12-31T09:01:11;16.10;99.90
15231;DHT22;32569;51.762;8.564;2022-12-31T09:03:56;16.10;99.90
15231;DHT22;32569;51.762;8.564;2022-12-31T09:06:28;16.00;99.90
15231;DHT22;32569;51.762;8.564;2022-12-31T09:09:01;16.10;99.90
15231;DHT22;32569;51.762;8.564;2022-12-31T09:11:36;16.10;99.90
15231;DHT22;32569;51.762;8.564;2022-12-31T09:14:18;16.10;99.90
15231;DHT22;32569;51.762;8.564;2022-12-31T09:16:56;16.10;99.90
15231;DHT22;32569;51.762;8.564;2022-12-31T09:19:24;16.10;99.90
15231;DHT22;32569;51.762;8.564;2022-12-31T09:21:52;16.20;99.90
15231;DHT22;32569;51.762;8.564;2022-12-31T09:24:19;16.20;99.90
15231;DHT22;32569;51.762;8.564;2022-12-31T09:26:54;16.30;99.90
15231;DHT22;32569;51.762;8.564;2022-12-31T09:29:36;16.20;99.90
15231;DHT22;32569;51.762;8.564;2022-12-31T09:32:16;16.40;99.90
15231;DHT22;32569;51.762;8.564;2022-12-31T09:34:49;16.40;99.90
15231;DHT22;32569;51.762;8.564;2022-12-31T09:37:22;16.50;99.90
15231;DHT22;32569;51.762;8.564;2022-12-31T09:39:50;16.50;99.90
15231;DHT22;32569;51.762;8.564;2022-12-31T09:46:00;16.50;99.90
15231;DHT22;32569;51.762;8.564;2022-12-31T09:51:52;16.70;99.90
15231;DHT22;32569;51.762;8.564;2022-12-31T09:54:38;16.70;99.90
15231;DHT22;32569;51.762;8.564;2022-12-31T09:57:33;16.70;99.90
15231;DHT22;32569;51.762;8.564;2022-12-31T10:00:08;16.70;99.90
15231;DHT22;32569;51.762;8.564;2022-12-31T10:02:54;16.70;99.90
15231;DHT22;32569;51.762;8.564;2022-12-31T10:05:39;16.70;99.90
15231;DHT22;32569;51.762;8.564;2022-12-31T10:08:18;16.70;99.90
15231;DHT22;32569;51.762;8.564;2022-12-31T10:10:52;16.60;99.90
15231;DHT22;32569;51.762;8.564;2022-12-31T10:13:31;16.50;99.90
15231;DHT22;32569;51.762;8.564;2022-12-31T10:16:15;16.50;99.90
15231;DHT22;32569;51.762;8.564;2022-12-31T10:19:02;16.40;99.90
15231;DHT22;32569;51.762;8.564;2022-12-31T10:21:45;16.30;99.90
15231;DHT22;32569;51.762;8.564;2022-12-31T10:24:27;16.20;99.90
15231;DHT22;32569;51.762;8.564;2022-12-31T10:27:14;16.20;99.90
15231;DHT22;32569;51.762;8.564;2022-12-31T10:29:45;16.10;99.90
15231;DHT22;32569;51.762;8.564;2022-12-31T10:32:19;16.00;99.90
15231;DHT22;32569;51.762;8.564;2022-12-31T10:34:53;16.00;99.90
15231;DHT22;32569;51.762;8.564;2022-12-31T10:37:23;16.00;99.90
15231;DHT22;32569;51.762;8.564;2022-12-31T10:40:01;16.10;99.90
15231;DHT22;32569;51.762;8.564;2022-12-31T10:42:42;16.10;99.90
15231;DHT22;32569;51.762;8.564;2022-12-31T10:48:35;16.10;99.90
15231;DHT22;32569;51.762;8.564;2022-12-31T10:51:24;16.30;99.90
15231;DHT22;32569;51.762;8.564;2022-12-31T10:54:15;16.30;99.90
15231;DHT22;32569;51.762;8.564;2022-12-31T11:00:13;16.20;99.90
15231;DHT22;32569;51.762;8.564;2022-12-31T11:03:15;16.10;99.90
15231;DHT22;32569;51.762;8.564;2022-12-31T11:12:37;16.10;99.90
15231;DHT22;32569;51.762;8.564;2022-12-31T11:15:24;16.10;99.90
15231;DHT22;32569;51.762;8.564;2022-12-31T11:18:05;16.10;99.90
15231;DHT22;32569;51.762;8.564;2022-12-31T11:20:57;16.10;99.90
15231;DHT22;32569;51.762;8.564;2022-12-31T11:23:37;16.20;99.90
15231;DHT22;32569;51.762;8.564;2022-12-31T11:26:13;16.20;99.90
15231;DHT22;32569;51.762;8.564;2022-12-31T11:29:02;16.30;99.90
15231;DHT22;32569;51.762;8.564;2022-12-31T11:31:50;16.40;99.90
15231;DHT22;32569;51.762;8.564;2022-12-31T11:34:41;16.50;99.90
15231;DHT22;32569;51.762;8.564;2022-12-31T11:37:27;16.50;99.90
15231;DHT22;32569;51.762;8.564;2022-12-31T11:40:02;16.60;99.90
15231;DHT22;32569;51.762;8.564;2022-12-31T11:42:39;16.60;99.90
15231;DHT22;32569;51.762;8.564;2022-12-31T11:45:12;16.70;99.90
15231;DHT22;32569;51.762;8.564;2022-12-31T11:47:49;16.80;99.90
15231;DHT22;32569;51.762;8.564;2022-12-31T11:50:26;16.80;99.90
15231;DHT22;32569;51.762;8.564;2022-12-31T11:53:10;16.80;99.90
15231;DHT22;32569;51.762;8.564;2022-12-31T11:55:52;16.80;99.90
15231;DHT22;32569;51.762;8.564;2022-12-31T11:58:22;16.80;99.90
15231;DHT22;32569;51.762;8.564;2022-12-31T12:00:55;16.90;99.90
15231;DHT22;32569;51.762;8.564;2022-12-31T12:03:24;16.90;99.90
15231;DHT22;32569;51.762;8.564;2022-12-31T12:05:51;16.90;99.90
15231;DHT22;32569;51.762;8.564;2022-12-31T12:08:18;17.00;99.90
15231;DHT22;32569;51.762;8.564;2022-12-31T12:10:47;17.10;99.90
15231;DHT22;32569;51.762;8.564;2022-12-31T12:13:22;17.10;99.90
15231;DHT22;32569;51.762;8.564;2022-12-31T12:15:50;17.20;99.90
15231;DHT22;32569;51.762;8.564;2022-12-31T12:18:28;17.20;99.90
15231;DHT22;32569;51.762;8.564;2022-12-31T12:21:05;17.20;99.90
15231;DHT22;32569;51.762;8.564;2022-12-31T12:23:33;17.20;99.90
15231;DHT22;32569;51.762;8.564;2022-12-31T12:26:00;17.20;99.90
15231;DHT22;32569;51.762;8.564;2022-12-31T12:28:29;17.20;99.90
15231;DHT22;32569;51.762;8.564;2022-12-31T12:30:58;17.20;99.90
15231;DHT22;32569;51.762;8.564;2022-12-31T12:33:28;17.30;99.90
15231;DHT22;32569;51.762;8.564;2022-12-31T12:36:06;17.30;99.90
15231;DHT22;32569;51.762;8.564;2022-12-31T12:38:33;17.20;99.90
15231;DHT22;32569;51.762;8.564;2022-12-31T12:41:02;17.20;99.90
15231;DHT22;32569;51.762;8.564;2022-12-31T12:43:31;17.10;99.90
15231;DHT22;32569;51.762;8.564;2022-12-31T12:46:00;17.10;99.90
15231;DHT22;32569;51.762;8.564;2022-12-31T12:48:35;17.10;99.90
15231;DHT22;32569;51.762;8.564;2022-12-31T12:51:11;17.10;99.90
15231;DHT22;32569;51.762;8.564;2022-12-31T12:53:47;17.10;99.90
15231;DHT22;32569;51.762;8.564;2022-12-31T12:56:23;17.10;99.90
15231;DHT22;32569;51.762;8.564;2022-12-31T12:59:03;17.00;99.90
15231;DHT22;32569;51.762;8.564;2022-12-31T13:01:38;17.00;99.90
15231;DHT22;32569;51.762;8.564;2022-12-31T13:04:34;17.00;99.90
15231;DHT22;32569;51.762;8.564;2022-12-31T13:07:22;17.00;99.90
15231;DHT22;32569;51.762;8.564;2022-12-31T13:10:11;17.00;99.90
15231;DHT22;32569;51.762;8.564;2022-12-31T13:12:46;17.00;99.90
15231;DHT22;32569;51.762;8.564;2022-12-31T13:15:20;17.00;99.90
15231;DHT22;32569;51.762;8.564;2022-12-31T13:17:57;17.00;99.90
15231;DHT22;32569;51.762;8.564;2022-12-31T13:20:30;17.00;99.90
15231;DHT22;32569;51.762;8.564;2022-12-31T13:23:02;16.90;99.90
15231;DHT22;32569;51.762;8.564;2022-12-31T13:25:41;16.90;99.90
15231;DHT22;32569;51.762;8.564;2022-12-31T13:28:14;17.00;99.90
15231;DHT22;32569;51.762;8.564;2022-12-31T13:30:45;16.90;99.90
15231;DHT22;32569;51.762;8.564;2022-12-31T13:33:15;16.90;99.90
15231;DHT22;32569;51.762;8.564;2022-12-31T13:35:47;16.80;99.90
15231;DHT22;32569;51.762;8.564;2022-12-31T13:38:17;16.80;99.90
15231;DHT22;32569;51.762;8.564;2022-12-31T13:40:50;16.70;99.90
15231;DHT22;32569;51.762;8.564;2022-12-31T13:43:22;16.60;99.90
15231;DHT22;32569;51.762;8.564;2022-12-31T13:46:00;16.60;99.90
15231;DHT22;32569;51.762;8.564;2022-12-31T13:48:33;16.50;99.90
15231;DHT22;32569;51.762;8.564;2022-12-31T13:51:07;16.50;99.90
15231;DHT22;32569;51.762;8.564;2022-12-31T13:53:40;16.40;99.90
15231;DHT22;32569;51.762;8.564;2022-12-31T13:56:13;16.40;99.90
15231;DHT22;32569;51.762;8.564;2022-12-31T13:58:45;16.40;99.90
15231;DHT22;32569;51.762;8.564;2022-12-31T14:01:17;16.30;99.90
15231;DHT22;32569;51.762;8.564;2022-12-31T14:03:49;16.30;99.90
15231;DHT22;32569;51.762;8.564;2022-12-31T14:06:23;16.40;99.90
15231;DHT22;32569;51.762;8.564;2022-12-31T14:08:53;16.40;99.90
15231;DHT22;32569;51.762;8.564;2022-12-31T14:11:35;16.40;99.90
15231;DHT22;32569;51.762;8.564;2022-12-31T14:14:15;16.40;99.90
15231;DHT22;32569;51.762;8.564;2022-12-31T14:16:50;16.40;99.90
15231;DHT22;32569;51.762;8.564;2022-12-31T14:19:29;16.40;99.90
15231;DHT22;32569;51.762;8.564;2022-12-31T14:22:02;16.40;99.90
15231;DHT22;32569;51.762;8.564;2022-12-31T14:24:39;16.40;99.90
15231;DHT22;32569;51.762;8.564;2022-12-31T14:27:12;16.40;99.90
15231;DHT22;32569;51.762;8.564;2022-12-31T14:29:43;16.50;99.90
15231;DHT22;32569;51.762;8.564;2022-12-31T14:35:43;16.60;99.90
15231;DHT22;32569;51.762;8.564;2022-12-31T14:38:23;16.60;99.90
15231;DHT22;32569;51.762;8.564;2022-12-31T14:40:59;16.60;99.90
15231;DHT22;32569;51.762;8.564;2022-12-31T14:43:41;16.60;99.90
15231;DHT22;32569;51.762;8.564;2022-12-31T14:46:17;16.50;99.90
15231;DHT22;32569;51.762;8.564;2022-12-31T14:48:59;16.50;99.90
15231;DHT22;32569;51.762;8.564;2022-12-31T14:51:28;16.40;99.90
15231;DHT22;32569;51.762;8.564;2022-12-31T14:53:57;16.50;99.90
15231;DHT22;32569;51.762;8.564;2022-12-31T14:56:28;16.40;99.90
15231;DHT22;32569;51.762;8.564;2022-12-31T14:58:56;16.40;99.90
15231;DHT22;32569;51.762;8.564;2022-12-31T15:01:24;16.40;99.90
15231;DHT22;32569;51.762;8.564;2022-12-31T15:03:52;16.30;99.90
15231;DHT22;32569;51.762;8.564;2022-12-31T15:06:44;16.30;99.90
15231;DHT22;32569;51.762;8.564;2022-12-31T15:09:22;16.30;99.90
15231;DHT22;32569;51.762;8.564;2022-12-31T15:12:05;16.30;99.90
15231;DHT22;32569;51.762;8.564;2022-12-31T15:14:57;16.20;99.90
15231;DHT22;32569;51.762;8.564;2022-12-31T15:17:36;16.20;99.90
15231;DHT22;32569;51.762;8.564;2022-12-31T15:20:26;16.10;99.90
15231;DHT22;32569;51.762;8.564;2022-12-31T15:22:56;16.10;99.90
15231;DHT22;32569;51.762;8.564;2022-12-31T15:25:30;16.10;99.90
15231;DHT22;32569;51.762;8.564;2022-12-31T15:27:59;16.00;99.90
15231;DHT22;32569;51.762;8.564;2022-12-31T15:30:33;16.00;99.90
15231;DHT22;32569;51.762;8.564;2022-12-31T15:33:03;16.00;99.90
15231;DHT22;32569;51.762;8.564;2022-12-31T15:35:43;16.00;99.90
15231;DHT22;32569;51.762;8.564;2022-12-31T15:38:28;15.90;99.90
15231;DHT22;32569;51.762;8.564;2022-12-31T15:40:57;15.90;99.90
15231;DHT22;32569;51.762;8.564;2022-12-31T15:43:31;15.90;99.90
15231;DHT22;32569;51.762;8.564;2022-12-31T15:46:01;15.90;99.90
15231;DHT22;32569;51.762;8.564;2022-12-31T15:48:33;15.70;99.90
15231;DHT22;32569;51.762;8.564;2022-12-31T15:51:04;15.70;99.90
15231;DHT22;32569;51.762;8.564;2022-12-31T15:53:40;15.70;99.90
15231;DHT22;32569;51.762;8.564;2022-12-31T15:56:16;15.70;99.90
15231;DHT22;32569;51.762;8.564;2022-12-31T15:58:45;15.70;99.90
15231;DHT22;32569;51.762;8.564;2022-12-31T16:01:16;15.70;99.90
15231;DHT22;32569;51.762;8.564;2022-12-31T16:03:46;15.80;99.90
15231;DHT22;32569;51.762;8.564;2022-12-31T16:06:15;15.80;99.90
15231;DHT22;32569;51.762;8.564;2022-12-31T16:08:44;15.80;99.90
15231;DHT22;32569;51.762;8.564;2022-12-31T16:11:14;15.80;99.90
15231;DHT22;32569;51.762;8.564;2022-12-31T16:13:43;15.70;99.90
15231;DHT22;32569;51.762;8.564;2022-12-31T16:16:20;15.60;99.90
15231;DHT22;32569;51.762;8.564;2022-12-31T16:18:47;15.60;99.90
15231;DHT22;32569;51.762;8.564;2022-12-31T16:21:26;15.60;99.90
15231;DHT22;32569;51.762;8.564;2022-12-31T16:23:55;15.60;99.90
15231;DHT22;32569;51.762;8.564;2022-12-31T16:26:28;15.50;99.90
15231;DHT22;32569;51.762;8.564;2022-12-31T16:28:55;15.50;99.90